Time;durP1;ratioP1;P1;durP2;ratioP2;P2;SDS_P1;SDS_P2;PMS_P1;PMS_P2;Temp;Humidity;BMP_temperature;BMP_pressure;BME280_temperature;BME280_humidity;BME280_pressure;Samples;Min_cycle;Max_cycle;Signal;HPM_P1;HPM_P2
2022/06/15 00:00:57;;;;;;;8.82;5.40;;;;;;;12.83;97.69;102112.03;5036982;28;20067;-77
2022/06/15 00:03:23;;;;;;;10.15;4.90;;;;;;;12.80;97.95;102102.38;5005572;28;20612;-77
2022/06/15 00:05:49;;;;;;;7.72;5.22;;;;;;;12.77;97.77;102103.34;5031643;28;20045;-75
2022/06/15 00:08:15;;;;;;;8.93;5.07;;;;;;;12.76;98.03;102106.91;5030892;28;20040;-76
2022/06/15 00:10:41;;;;;;;6.22;4.43;;;;;;;12.75;98.15;102109.66;5032510;28;20036;-75
2022/06/15 00:13:08;;;;;;;9.48;5.50;;;;;;;12.72;98.46;102109.75;5028934;28;20116;-76
2022/06/15 00:15:34;;;;;;;7.85;5.30;;;;;;;12.70;98.56;102103.63;5041305;28;20668;-76
2022/06/15 00:18:00;;;;;;;8.48;5.28;;;;;;;12.67;98.50;102104.59;5029237;28;20114;-77
2022/06/15 00:20:26;;;;;;;8.95;5.32;;;;;;;12.66;98.33;102099.31;5027520;28;20116;-78
2022/06/15 00:22:51;;;;;;;8.68;5.65;;;;;;;12.63;98.57;102100.28;5015347;28;20472;-77
2022/06/15 00:25:17;;;;;;;11.75;5.50;;;;;;;12.62;98.61;102101.22;5029427;28;20028;-77
2022/06/15 00:27:42;;;;;;;10.63;5.40;;;;;;;12.59;98.26;102094.22;5011725;28;20043;-77
2022/06/15 00:30:08;;;;;;;9.63;5.20;;;;;;;12.58;98.87;102094.28;5026665;28;20044;-75
2022/06/15 00:32:34;;;;;;;7.50;5.40;;;;;;;12.56;98.91;102094.34;5039289;28;20047;-78
2022/06/15 00:35:00;;;;;;;11.07;5.88;;;;;;;12.56;98.44;102090.78;5029629;28;20037;-77
2022/06/15 00:37:25;;;;;;;11.77;5.78;;;;;;;12.54;98.87;102096.19;5030238;28;20672;-77
2022/06/15 00:39:51;;;;;;;8.52;5.55;;;;;;;12.54;99.42;102096.19;5030127;28;20120;-77
2022/06/15 00:42:16;;;;;;;7.68;5.05;;;;;;;12.52;99.31;102095.34;5023659;28;20044;-76
2022/06/15 00:44:42;;;;;;;7.45;5.65;;;;;;;12.52;99.33;102097.16;5023134;28;20175;-75
2022/06/15 00:47:23;;;;;;;9.70;5.35;;;;;;;12.53;100.00;102097.06;5026597;28;20068;-77
2022/06/15 00:50:01;;;;;;;9.68;5.88;;;;;;;12.54;100.00;102100.63;5006738;28;20029;-77
2022/06/15 00:52:36;;;;;;;7.72;4.90;;;;;;;12.55;99.80;102099.69;5027016;28;21065;-77
2022/06/15 00:55:06;;;;;;;7.82;5.20;;;;;;;12.56;100.00;102094.34;5029964;28;20067;-75
2022/06/15 00:57:32;;;;;;;9.82;5.80;;;;;;;12.57;100.00;102090.75;5026915;28;20041;-78
2022/06/15 00:59:59;;;;;;;9.82;5.72;;;;;;;12.57;100.00;102089.88;5031456;28;20086;-78
2022/06/15 01:02:26;;;;;;;12.93;5.90;;;;;;;12.57;100.00;102095.19;5024690;28;20947;-78
2022/06/15 01:05:02;;;;;;;8.25;5.63;;;;;;;12.54;100.00;102093.53;5039448;28;20511;-76
2022/06/15 01:07:42;;;;;;;10.30;5.60;;;;;;;12.52;100.00;102100.66;5030308;28;20033;-77
2022/06/15 01:10:28;;;;;;;8.38;5.28;;;;;;;12.49;100.00;102095.47;5028307;28;20040;-76
2022/06/15 01:13:12;;;;;;;8.18;5.30;;;;;;;12.45;100.00;102088.50;5012815;28;20472;-76
2022/06/15 01:15:58;;;;;;;11.63;6.05;;;;;;;12.42;100.00;102091.28;5028397;28;20037;-76
2022/06/15 01:18:39;;;;;;;8.25;5.45;;;;;;;12.41;100.00;102089.53;5010497;28;20033;-77
2022/06/15 01:21:23;;;;;;;8.45;5.40;;;;;;;12.40;100.00;102091.31;5029250;28;20040;-77
2022/06/15 01:23:57;;;;;;;8.27;5.18;;;;;;;12.42;100.00;102091.28;5029153;28;20110;-76
2022/06/15 01:26:51;;;;;;;9.57;5.82;;;;;;;12.44;100.00;102086.78;5043491;28;20052;-76
2022/06/15 01:29:27;;;;;;;11.18;5.45;;;;;;;12.47;100.00;102084.88;5028708;28;21211;-77
2022/06/15 01:32:11;;;;;;;9.13;5.57;;;;;;;12.48;100.00;102089.25;5030152;28;20036;-77
2022/06/15 01:34:48;;;;;;;8.90;5.82;;;;;;;12.48;100.00;102091.91;5026652;28;20083;-78
2022/06/15 01:37:35;;;;;;;7.60;5.15;;;;;;;12.46;100.00;102084.94;5010646;28;20036;-77
2022/06/15 01:40:07;;;;;;;10.15;5.28;;;;;;;12.44;100.00;102092.09;5026370;28;20037;-77
2022/06/15 01:42:38;;;;;;;9.57;5.80;;;;;;;12.40;100.00;102090.44;5010273;28;20392;-77
2022/06/15 01:45:10;;;;;;;8.10;5.43;;;;;;;12.37;100.00;102088.78;5030616;28;20048;-78
2022/06/15 01:47:37;;;;;;;10.20;5.55;;;;;;;12.34;100.00;102087.09;4991653;28;20130;-77
2022/06/15 01:50:11;;;;;;;9.38;5.97;;;;;;;12.33;100.00;102082.66;5009668;28;20025;-77
2022/06/15 01:52:42;;;;;;;11.05;5.35;;;;;;;12.32;100.00;102077.44;5024931;28;20404;-78
2022/06/15 01:55:12;;;;;;;9.57;5.28;;;;;;;12.31;100.00;102089.84;5009589;28;20127;-76
2022/06/15 01:57:39;;;;;;;8.77;5.75;;;;;;;12.30;100.00;102088.09;5014517;28;20041;-78
2022/06/15 02:00:07;;;;;;;8.48;5.32;;;;;;;12.29;100.00;102085.47;5030401;28;20579;-77
2022/06/15 02:03:12;;;;;;;7.82;5.78;;;;;;;12.27;100.00;102082.91;5025355;28;20381;-77
2022/06/15 02:05:47;;;;;;;9.57;5.47;;;;;;;12.26;100.00;102081.13;5027220;28;20087;-77
2022/06/15 02:08:45;;;;;;;7.75;5.32;;;;;;;12.25;100.00;102079.41;5027735;28;20632;-76
2022/06/15 02:11:17;;;;;;;12.15;5.63;;;;;;;12.23;100.00;102075.94;5021642;28;20231;-76
2022/06/15 02:13:47;;;;;;;11.02;5.78;;;;;;;12.21;100.00;102067.16;5031936;28;21417;-76
2022/06/15 02:16:40;;;;;;;9.30;5.20;;;;;;;12.20;100.00;102070.75;5030774;28;20488;-76
2022/06/15 02:19:09;;;;;;;11.00;5.68;;;;;;;12.17;100.00;102069.06;5029979;28;20436;-76
2022/06/15 02:21:37;;;;;;;7.30;5.18;;;;;;;12.17;100.00;102066.41;5009726;28;20045;-79
2022/06/15 02:24:04;;;;;;;12.00;5.75;;;;;;;12.15;100.00;102065.56;5048996;28;20373;-77
2022/06/15 02:26:32;;;;;;;7.72;5.68;;;;;;;12.16;100.00;102063.78;5033500;28;20043;-76
2022/06/15 02:29:05;;;;;;;9.30;5.50;;;;;;;12.15;100.00;102065.56;5028586;28;20529;-76
2022/06/15 02:31:30;;;;;;;7.85;5.60;;;;;;;12.15;100.00;102062.06;5029170;28;20483;-76
2022/06/15 02:33:57;;;;;;;8.02;5.20;;;;;;;12.13;100.00;102059.44;5025472;28;20033;-76
2022/06/15 02:36:23;;;;;;;9.40;5.72;;;;;;;12.12;100.00;102059.50;5030265;28;20037;-77
2022/06/15 02:38:51;;;;;;;9.13;5.45;;;;;;;12.11;100.00;102057.75;5033965;28;20078;-76
2022/06/15 02:41:20;;;;;;;8.52;5.60;;;;;;;12.09;100.00;102055.16;5042586;28;20052;-76
2022/06/15 02:43:48;;;;;;;9.20;5.07;;;;;;;12.06;100.00;102061.44;5027379;28;20102;-75
2022/06/15 02:46:16;;;;;;;8.73;5.57;;;;;;;12.04;100.00;102063.25;5047116;28;20034;-76
2022/06/15 02:48:42;;;;;;;8.52;5.18;;;;;;;12.03;100.00;102052.66;5042176;28;20048;-76
2022/06/15 02:51:13;;;;;;;9.05;5.40;;;;;;;12.03;100.00;102050.91;5015989;28;20048;-78
2022/06/15 02:53:40;;;;;;;7.85;4.80;;;;;;;12.00;100.00;102053.66;5031102;28;20265;-78
2022/06/15 02:56:07;;;;;;;9.25;5.78;;;;;;;12.01;100.00;102049.19;5032170;28;20050;-76
2022/06/15 02:58:39;;;;;;;6.90;4.88;;;;;;;12.03;100.00;102050.00;5032043;28;20379;-78
2022/06/15 03:01:05;;;;;;;8.85;4.75;;;;;;;12.04;100.00;102049.13;5030910;28;20641;-78
2022/06/15 03:03:31;;;;;;;11.40;5.03;;;;;;;12.07;100.00;102057.00;5043295;28;20037;-76
2022/06/15 03:05:57;;;;;;;8.23;4.60;;;;;;;12.07;100.00;102049.91;5027191;28;20056;-76
2022/06/15 03:08:23;;;;;;;7.18;4.68;;;;;;;12.09;100.00;102053.38;5032751;28;20037;-78
2022/06/15 03:10:49;;;;;;;6.55;4.30;;;;;;;12.08;100.00;102051.63;5035057;28;20123;-78
2022/06/15 03:13:15;;;;;;;5.93;4.57;;;;;;;12.10;100.00;102054.25;5029963;28;20032;-78
2022/06/15 03:15:41;;;;;;;5.90;4.43;;;;;;;12.12;100.00;102046.22;5030017;28;20041;-78
2022/06/15 03:18:07;;;;;;;6.85;4.65;;;;;;;12.09;100.00;102048.06;5029918;28;21740;-78
2022/06/15 03:20:32;;;;;;;7.07;4.63;;;;;;;12.08;100.00;102049.00;5030353;28;20020;-78
2022/06/15 03:22:58;;;;;;;6.22;4.05;;;;;;;12.06;100.00;102047.28;5030963;28;20048;-78
2022/06/15 03:25:24;;;;;;;8.30;4.70;;;;;;;12.04;100.00;102049.13;5031377;28;20039;-78
2022/06/15 03:27:50;;;;;;;6.75;4.82;;;;;;;12.00;100.00;102052.75;5030772;28;20029;-78
2022/06/15 03:30:16;;;;;;;7.50;4.95;;;;;;;11.97;100.00;102048.41;5029894;28;20044;-77
2022/06/15 03:32:41;;;;;;;7.82;4.30;;;;;;;11.97;100.00;102053.72;5029231;28;20033;-78
2022/06/15 03:35:08;;;;;;;7.95;4.72;;;;;;;11.97;100.00;102047.56;5032160;28;20554;-78
2022/06/15 03:37:34;;;;;;;8.32;4.75;;;;;;;11.96;100.00;102052.00;5014093;28;20037;-78
2022/06/15 03:39:59;;;;;;;9.02;5.00;;;;;;;11.97;100.00;102061.69;5029000;28;20033;-78
2022/06/15 03:42:26;;;;;;;11.05;5.00;;;;;;;11.95;100.00;102060.88;5028338;28;20422;-78
2022/06/15 03:44:53;;;;;;;7.78;4.55;;;;;;;11.91;100.00;102053.91;5029859;28;20452;-78
2022/06/15 03:47:20;;;;;;;7.93;4.70;;;;;;;11.87;100.00;102045.19;5027714;28;20497;-78
2022/06/15 03:49:53;;;;;;;6.72;4.47;;;;;;;11.77;100.00;102044.63;5007867;28;20496;-78
2022/06/15 03:52:21;;;;;;;6.45;4.63;;;;;;;11.70;100.00;102044.88;5041597;28;20063;-78
2022/06/15 03:54:47;;;;;;;7.00;4.45;;;;;;;11.59;100.00;102040.75;5006456;28;20531;-78
2022/06/15 03:57:14;;;;;;;7.78;4.93;;;;;;;11.54;100.00;102045.31;5025054;28;20035;-78
2022/06/15 03:59:40;;;;;;;7.82;5.35;;;;;;;11.48;100.00;102045.50;5013284;28;20056;-78
2022/06/15 04:02:05;;;;;;;7.18;5.05;;;;;;;11.37;100.00;102044.06;5039937;28;20147;-78
2022/06/15 04:04:31;;;;;;;9.98;6.03;;;;;;;11.27;100.00;102046.09;5030264;28;20778;-78
2022/06/15 04:06:57;;;;;;;7.90;5.47;;;;;;;11.23;100.00;102052.41;5025504;28;20515;-78
2022/06/15 04:09:23;;;;;;;10.20;5.57;;;;;;;11.18;100.00;102049.03;5013280;28;20033;-78
2022/06/15 04:11:59;;;;;;;8.23;5.45;;;;;;;11.12;100.00;102055.34;5042446;28;20135;-78
2022/06/15 04:14:31;;;;;;;9.07;5.65;;;;;;;11.08;100.00;102055.50;5031023;28;20101;-78
2022/06/15 04:16:57;;;;;;;9.70;5.68;;;;;;;11.06;100.00;102057.34;5041775;28;20043;-78
2022/06/15 04:19:28;;;;;;;9.18;5.65;;;;;;;11.03;100.00;102057.41;5031392;28;20024;-78
2022/06/15 04:21:54;;;;;;;7.57;5.70;;;;;;;10.95;100.00;102057.63;5030482;28;20029;-78
2022/06/15 04:24:21;;;;;;;9.55;5.72;;;;;;;10.85;100.00;102057.03;5015362;28;20090;-78
2022/06/15 04:26:48;;;;;;;7.80;5.55;;;;;;;10.82;100.00;102057.97;5031401;28;20111;-77
2022/06/15 04:29:15;;;;;;;9.70;5.75;;;;;;;10.82;100.00;102054.44;5030108;28;20040;-77
2022/06/15 04:31:41;;;;;;;11.35;5.72;;;;;;;10.81;100.00;102061.53;5035215;28;20387;-77
2022/06/15 04:34:07;;;;;;;8.45;5.72;;;;;;;10.83;100.00;102056.16;5041623;28;21534;-77
2022/06/15 04:36:33;;;;;;;9.50;6.00;;;;;;;10.86;100.00;102072.00;5031847;28;20167;-77
2022/06/15 04:38:59;;;;;;;13.07;6.25;;;;;;;10.85;100.00;102062.31;5032228;28;20029;-77
2022/06/15 04:41:25;;;;;;;9.38;6.55;;;;;;;10.83;100.00;102064.13;5032956;28;20133;-77
2022/06/15 04:43:50;;;;;;;9.25;6.15;;;;;;;10.81;100.00;102064.19;5032696;28;20522;-77
2022/06/15 04:46:16;;;;;;;8.32;6.03;;;;;;;10.83;100.00;102069.41;5044406;28;20032;-77
2022/06/15 04:48:42;;;;;;;10.27;6.55;;;;;;;10.83;100.00;102074.72;5041890;28;20441;-77
2022/06/15 04:51:29;;;;;;;8.38;5.38;;;;;;;10.86;100.00;102069.34;5031001;28;20037;-77
2022/06/15 04:53:56;;;;;;;7.60;5.70;;;;;;;10.91;100.00;102071.88;5026257;28;21126;-77
2022/06/15 04:56:23;;;;;;;10.70;6.40;;;;;;;10.94;100.00;102080.59;5030131;28;20028;-77
2022/06/15 04:58:49;;;;;;;11.98;6.95;;;;;;;11.00;100.00;102069.84;5027418;28;20056;-77
2022/06/15 05:01:15;;;;;;;10.13;6.47;;;;;;;11.10;100.00;102066.91;5022534;28;20563;-77
2022/06/15 05:03:41;;;;;;;10.25;6.60;;;;;;;11.26;100.00;102072.66;5008598;28;20026;-77
2022/06/15 05:06:31;;;;;;;10.73;6.70;;;;;;;11.50;100.00;102060.47;5029709;28;20047;-77
2022/06/15 05:08:56;;;;;;;10.52;6.22;;;;;;;11.65;100.00;102067.09;5029749;28;20186;-77
2022/06/15 05:11:22;;;;;;;10.05;6.40;;;;;;;11.81;100.00;102064.84;5029966;28;20142;-77
2022/06/15 05:13:47;;;;;;;9.48;6.35;;;;;;;11.97;100.00;102071.47;5023198;28;20048;-77
2022/06/15 05:16:13;;;;;;;9.70;6.15;;;;;;;12.14;100.00;102073.59;5026137;28;20048;-77
2022/06/15 05:18:38;;;;;;;8.90;6.30;;;;;;;12.32;100.00;102072.97;5028508;28;20041;-77
2022/06/15 05:21:04;;;;;;;11.50;6.00;;;;;;;12.47;100.00;102079.56;5014567;28;20485;-77
2022/06/15 05:23:30;;;;;;;10.35;6.72;;;;;;;12.65;100.00;102079.00;5028274;28;20062;-77
2022/06/15 05:25:58;;;;;;;8.27;5.78;;;;;;;12.84;100.00;102082.75;5011246;28;20029;-77
2022/06/15 05:28:24;;;;;;;9.50;6.57;;;;;;;13.03;100.00;102085.59;5039233;28;20047;-78
2022/06/15 05:30:49;;;;;;;8.02;6.03;;;;;;;13.16;100.00;102082.50;5023693;28;20399;-77
2022/06/15 05:33:15;;;;;;;8.73;6.00;;;;;;;13.35;100.00;102077.34;5040411;28;20040;-77
2022/06/15 05:35:40;;;;;;;10.20;5.30;;;;;;;13.52;100.00;102083.88;5029294;28;20032;-78
2022/06/15 05:38:06;;;;;;;9.25;6.00;;;;;;;13.68;100.00;102068.19;5040178;28;20032;-77
2022/06/15 05:40:31;;;;;;;8.43;5.97;;;;;;;13.83;100.00;102067.59;5024375;28;20049;-78
2022/06/15 05:42:57;;;;;;;9.05;5.65;;;;;;;14.04;100.00;102072.97;5039877;28;20029;-76
2022/06/15 05:45:23;;;;;;;10.00;5.85;;;;;;;14.25;100.00;102070.34;5029657;28;20460;-78
2022/06/15 05:47:49;;;;;;;8.68;5.68;;;;;;;14.42;100.00;102071.47;4999146;28;20069;-78
2022/06/15 05:50:15;;;;;;;7.45;4.85;;;;;;;14.58;100.00;102074.31;5028963;28;20026;-78
2022/06/15 05:52:41;;;;;;;8.20;5.00;;;;;;;14.75;100.00;102071.84;5010001;28;20036;-78
2022/06/15 05:55:07;;;;;;;8.30;5.05;;;;;;;14.94;100.00;102071.03;5031726;28;20635;-76
2022/06/15 05:57:33;;;;;;;11.75;6.57;;;;;;;15.14;100.00;102078.13;5039512;28;20029;-76
2022/06/15 05:59:58;;;;;;;11.95;6.93;;;;;;;15.35;100.00;102070.06;5027487;28;20389;-76
2022/06/15 06:02:26;;;;;;;12.65;6.72;;;;;;;15.53;100.00;102072.81;5027440;28;20033;-77
2022/06/15 06:04:52;;;;;;;13.32;8.10;;;;;;;15.78;100.00;102066.31;5038713;28;20090;-77
2022/06/15 06:07:20;;;;;;;9.93;6.18;;;;;;;16.00;100.00;102066.16;5021308;28;20045;-77
2022/06/15 06:09:45;;;;;;;10.48;5.80;;;;;;;16.29;99.45;102072.72;5027375;28;20033;-77
2022/06/15 06:12:11;;;;;;;9.43;5.78;;;;;;;16.43;97.93;102061.34;5024457;28;20514;-77
2022/06/15 06:14:38;;;;;;;9.85;5.60;;;;;;;16.59;97.62;102063.22;5006690;28;20029;-76
2022/06/15 06:17:05;;;;;;;9.52;5.50;;;;;;;16.77;97.13;102066.75;5030013;28;20040;-77
2022/06/15 06:19:30;;;;;;;7.95;4.40;;;;;;;16.94;96.57;102068.53;5028109;28;20685;-77
2022/06/15 06:21:56;;;;;;;6.25;3.70;;;;;;;17.13;96.27;102072.94;5038297;28;20033;-77
2022/06/15 06:24:21;;;;;;;4.28;3.05;;;;;;;17.34;94.90;102067.38;5034490;28;20037;-77
2022/06/15 06:26:47;;;;;;;5.60;3.08;;;;;;;17.50;94.78;102067.38;5034773;28;20029;-77
2022/06/15 06:29:15;;;;;;;6.45;3.63;;;;;;;17.68;93.88;102069.97;5033714;28;20041;-77
2022/06/15 06:31:41;;;;;;;6.57;3.13;;;;;;;17.89;93.24;102065.22;5033662;28;20325;-77
2022/06/15 06:34:07;;;;;;;4.65;2.90;;;;;;;18.02;92.17;102065.34;5033131;28;20063;-76
2022/06/15 06:36:44;;;;;;;4.10;2.50;;;;;;;18.18;89.00;102076.09;5031793;28;20033;-77
2022/06/15 06:39:17;;;;;;;5.00;2.92;;;;;;;18.28;90.36;102066.56;5031596;28;20548;-76
2022/06/15 06:41:43;;;;;;;3.45;2.35;;;;;;;18.50;90.09;102073.31;5034554;28;20518;-77
2022/06/15 06:44:10;;;;;;;2.70;2.20;;;;;;;18.62;88.62;102071.72;5029065;28;20111;-77
2022/06/15 06:46:36;;;;;;;2.63;2.15;;;;;;;18.75;87.33;102085.28;5031972;28;20040;-76
2022/06/15 06:49:05;;;;;;;2.60;1.58;;;;;;;18.85;86.46;102082.88;5050489;28;20044;-76
2022/06/15 06:51:30;;;;;;;3.25;1.92;;;;;;;19.00;85.74;102079.25;5028467;28;20064;-78
2022/06/15 06:53:56;;;;;;;4.22;2.50;;;;;;;19.17;85.20;102079.19;5032377;28;20519;-77
2022/06/15 06:56:22;;;;;;;3.13;1.63;;;;;;;19.30;84.94;102073.91;5026690;28;20040;-77
2022/06/15 06:58:47;;;;;;;2.05;1.50;;;;;;;19.38;82.71;102085.88;5032176;28;20028;-76
2022/06/15 07:01:13;;;;;;;2.95;1.58;;;;;;;19.35;82.43;102082.53;5030778;28;20613;-77
2022/06/15 07:03:38;;;;;;;2.47;1.77;;;;;;;19.30;81.92;102090.00;5023967;28;20037;-76
2022/06/15 07:06:06;;;;;;;2.83;1.60;;;;;;;19.37;81.22;102085.97;5033051;28;20124;-77
2022/06/15 07:08:32;;;;;;;2.13;1.33;;;;;;;19.54;81.43;102095.66;5030096;28;20047;-76
2022/06/15 07:10:58;;;;;;;1.92;1.48;;;;;;;19.57;80.45;102098.16;5049083;28;20033;-76
2022/06/15 07:13:23;;;;;;;3.42;1.73;;;;;;;19.54;80.19;102093.84;5028056;28;20039;-77
2022/06/15 07:15:49;;;;;;;2.70;1.40;;;;;;;19.58;79.99;102102.56;5034391;28;20055;-78
2022/06/15 07:18:15;;;;;;;2.40;1.40;;;;;;;19.52;78.83;102097.56;5031827;28;20116;-77
2022/06/15 07:20:40;;;;;;;1.73;1.42;;;;;;;19.46;79.22;102095.28;5032971;28;20029;-78
2022/06/15 07:23:06;;;;;;;1.60;1.23;;;;;;;19.38;78.12;102111.88;5035505;28;20036;-77
2022/06/15 07:25:31;;;;;;;2.92;1.58;;;;;;;19.32;77.09;102113.13;5034260;28;20115;-77
2022/06/15 07:27:57;;;;;;;1.70;1.20;;;;;;;19.46;76.79;102104.22;5032135;28;20032;-78
2022/06/15 07:30:25;;;;;;;4.03;1.48;;;;;;;19.65;76.76;102111.06;5034011;28;20041;-79
2022/06/15 07:32:50;;;;;;;2.35;1.40;;;;;;;19.81;76.45;102109.13;5034273;28;20154;-78
2022/06/15 07:35:25;;;;;;;3.38;1.90;;;;;;;19.92;73.25;102108.44;5036644;28;20498;-78
2022/06/15 07:37:52;;;;;;;3.10;1.65;;;;;;;19.94;74.41;102108.34;5033058;28;20028;-78
2022/06/15 07:40:19;;;;;;;2.55;1.73;;;;;;;19.95;73.50;102113.63;5030299;28;20268;-79
2022/06/15 07:42:45;;;;;;;3.35;2.03;;;;;;;19.86;74.57;102116.00;5036327;28;20064;-80
2022/06/15 07:45:11;;;;;;;2.70;1.90;;;;;;;19.63;75.17;102113.88;5040704;28;20073;-79
2022/06/15 07:50:21;;;;;;;2.78;2.20;;;;;;;19.32;73.67;102117.63;5034436;28;20055;-85
2022/06/15 07:52:50;;;;;;;3.58;2.10;;;;;;;19.39;74.61;102122.50;5035473;28;20041;-79
2022/06/15 07:55:21;;;;;;;2.78;1.98;;;;;;;19.59;74.37;102116.81;5032315;28;20029;-77
2022/06/15 07:57:47;;;;;;;3.03;1.85;;;;;;;19.83;74.78;102127.81;5034943;28;20510;-79
2022/06/15 08:00:14;;;;;;;5.43;2.33;;;;;;;20.08;73.77;102120.88;5035088;28;20065;-77
2022/06/15 08:02:40;;;;;;;3.28;2.13;;;;;;;20.28;72.26;102114.19;5028429;28;20036;-77
2022/06/15 08:05:06;;;;;;;5.30;1.90;;;;;;;20.46;72.45;102120.16;5029566;28;20052;-76
2022/06/15 08:07:32;;;;;;;4.32;2.47;;;;;;;20.59;70.56;102124.72;5045042;28;20036;-76
2022/06/15 08:09:57;;;;;;;4.65;2.28;;;;;;;20.61;69.63;102126.31;5013583;28;20037;-76
2022/06/15 08:12:23;;;;;;;3.60;2.10;;;;;;;20.65;69.22;102118.91;5044665;28;20116;-77
2022/06/15 08:14:52;;;;;;;3.28;2.10;;;;;;;20.68;68.92;102116.00;5032889;28;20071;-76
2022/06/15 08:17:19;;;;;;;4.00;2.50;;;;;;;20.67;69.07;102114.28;5016371;28;20574;-75
2022/06/15 08:19:48;;;;;;;3.45;2.30;;;;;;;20.71;69.23;102112.25;5065163;28;20384;-76
2022/06/15 08:22:14;;;;;;;4.03;2.47;;;;;;;20.83;69.63;102114.09;5032381;28;20033;-76
2022/06/15 08:24:40;;;;;;;3.30;2.20;;;;;;;20.85;68.96;102112.16;5030808;28;20057;-76
2022/06/15 08:27:06;;;;;;;2.63;1.60;;;;;;;20.87;68.39;102114.75;5032533;28;20124;-76
2022/06/15 08:29:33;;;;;;;2.78;1.58;;;;;;;20.85;68.29;102111.28;5042284;28;20040;-81
2022/06/15 08:31:58;;;;;;;3.00;1.75;;;;;;;21.02;68.48;102118.19;5019694;28;20064;-78
2022/06/15 08:34:25;;;;;;;1.60;1.10;;;;;;;21.11;67.15;102111.31;5032110;28;20798;-78
2022/06/15 08:36:51;;;;;;;1.52;1.10;;;;;;;21.17;66.58;102110.88;5032774;28;20039;-81
2022/06/15 08:39:16;;;;;;;2.25;1.13;;;;;;;21.17;64.16;102121.66;5031801;28;20037;-81
2022/06/15 08:41:47;;;;;;;3.80;1.50;;;;;;;21.19;66.08;102118.84;5032775;28;20044;-78
2022/06/15 08:44:34;;;;;;;1.63;1.50;;;;;;;21.33;65.18;102116.03;5019122;28;20032;-77
2022/06/15 08:47:06;;;;;;;1.70;1.40;;;;;;;21.54;64.87;102118.16;5028321;28;20105;-76
2022/06/15 08:49:47;;;;;;;3.87;1.93;;;;;;;21.55;63.58;102109.09;5043699;28;20041;-76
2022/06/15 08:52:19;;;;;;;2.67;1.65;;;;;;;21.61;65.11;102107.81;5044062;28;20037;-76
2022/06/15 08:55:08;;;;;;;3.58;1.40;;;;;;;21.61;62.15;102105.13;5010295;28;20036;-76
2022/06/15 08:57:47;;;;;;;4.28;1.88;;;;;;;21.56;63.84;102095.53;5034234;28;20036;-76
2022/06/15 09:00:27;;;;;;;1.95;1.52;;;;;;;21.50;64.30;102106.75;5015978;28;20147;-78
2022/06/15 09:03:13;;;;;;;2.10;1.40;;;;;;;21.60;64.47;102100.66;5050490;28;20041;-74
2022/06/15 09:06:16;;;;;;;2.38;1.35;;;;;;;21.76;63.23;102101.31;5037385;28;20052;-83
2022/06/15 09:08:51;;;;;;;2.08;1.30;;;;;;;21.79;64.22;102101.06;5032403;28;20044;-78
2022/06/15 09:11:33;;;;;;;5.90;1.35;;;;;;;21.86;65.08;102098.81;5039519;28;20041;-77
2022/06/15 09:14:09;;;;;;;2.35;1.52;;;;;;;21.91;65.05;102098.47;5037397;28;20033;-78
2022/06/15 09:17:17;;;;;;;4.00;1.20;;;;;;;21.96;61.87;102098.97;5036546;28;20064;-76
2022/06/15 09:19:49;;;;;;;2.30;1.30;;;;;;;22.14;64.25;102101.25;5034057;28;20040;-77
2022/06/15 09:22:18;;;;;;;1.83;1.30;;;;;;;22.23;63.14;102098.72;5032150;28;20041;-77
2022/06/15 09:24:51;;;;;;;3.08;1.35;;;;;;;22.44;62.73;102102.63;5031381;28;20442;-77
2022/06/15 09:27:48;;;;;;;1.85;1.20;;;;;;;22.54;61.30;102105.50;5020085;28;20376;-77
2022/06/15 09:30:23;;;;;;;2.60;1.52;;;;;;;22.66;60.00;102099.13;5034888;28;20483;-77
2022/06/15 09:33:10;;;;;;;3.40;1.50;;;;;;;22.65;59.67;102101.00;5019945;28;20104;-78
2022/06/15 09:35:41;;;;;;;3.15;1.35;;;;;;;22.69;60.21;102092.63;5019780;28;20100;-77
2022/06/15 09:38:14;;;;;;;3.22;1.25;;;;;;;22.72;59.49;102097.81;5036061;28;20025;-77
2022/06/15 09:40:49;;;;;;;2.30;1.55;;;;;;;22.64;58.36;102093.88;5012667;28;20030;-77
2022/06/15 09:43:41;;;;;;;4.85;1.60;;;;;;;22.59;57.48;102093.38;5037527;28;20053;-77
2022/06/15 09:46:32;;;;;;;3.83;1.60;;;;;;;22.65;56.57;102089.31;5018509;28;20057;-77
2022/06/15 09:49:26;;;;;;;5.00;1.50;;;;;;;22.43;56.31;102093.66;5013935;28;20052;-77
2022/06/15 09:52:54;;;;;;;2.45;1.50;;;;;;;22.22;56.22;102090.78;5013816;28;20581;-77
2022/06/15 09:55:39;;;;;;;4.35;1.67;;;;;;;21.97;55.00;102092.63;4977517;28;20034;-77
2022/06/15 09:58:06;;;;;;;2.88;1.75;;;;;;;21.85;56.71;102083.63;4970820;28;20184;-76
2022/06/15 10:00:32;;;;;;;1.80;1.40;;;;;;;21.89;57.21;102089.63;4971707;28;20047;-75
2022/06/15 10:03:06;;;;;;;2.30;1.67;;;;;;;21.95;56.81;102086.47;4974998;28;20113;-76
2022/06/15 10:05:59;;;;;;;3.17;1.30;;;;;;;22.02;55.25;102095.84;4982666;28;20326;-76
2022/06/15 10:08:28;;;;;;;1.55;1.30;;;;;;;22.11;55.78;102087.03;4981560;28;20106;-78
2022/06/15 10:10:56;;;;;;;1.65;1.55;;;;;;;22.14;55.08;102085.06;4984624;28;20728;-77
2022/06/15 10:13:28;;;;;;;3.63;1.58;;;;;;;22.16;55.13;102091.25;4983627;28;20031;-77
2022/06/15 10:15:59;;;;;;;2.00;1.80;;;;;;;22.07;54.55;102077.44;4984871;28;20076;-77
2022/06/15 10:18:32;;;;;;;2.95;1.83;;;;;;;21.90;54.40;102083.25;4996644;28;20097;-77
2022/06/15 10:21:37;;;;;;;2.38;1.75;;;;;;;21.67;55.88;102081.25;5031235;28;20096;-77
2022/06/15 10:24:17;;;;;;;2.17;1.70;;;;;;;21.68;56.56;102082.97;5023195;28;20029;-76
2022/06/15 10:26:47;;;;;;;1.92;1.55;;;;;;;21.61;55.89;102075.47;5025085;28;20042;-77
2022/06/15 10:29:22;;;;;;;4.10;2.05;;;;;;;21.50;56.49;102079.81;5024238;28;20573;-77
2022/06/15 10:32:12;;;;;;;3.53;2.00;;;;;;;21.48;55.62;102078.19;5007169;28;20037;-75
2022/06/15 10:35:13;;;;;;;3.55;1.73;;;;;;;21.51;55.26;102073.44;5024306;28;20046;-76
2022/06/15 10:37:47;;;;;;;2.20;1.73;;;;;;;21.65;56.32;102074.25;5022349;28;20048;-75
2022/06/15 10:40:33;;;;;;;1.73;1.63;;;;;;;21.71;54.94;102063.06;5026102;28;20069;-77
2022/06/15 10:43:15;;;;;;;2.20;1.70;;;;;;;21.60;55.45;102068.34;5003255;28;20048;-77
2022/06/15 10:45:44;;;;;;;2.85;1.70;;;;;;;21.64;56.42;102061.75;5014367;28;20503;-77
2022/06/15 10:48:16;;;;;;;4.32;1.60;;;;;;;21.82;55.29;102067.66;4998505;28;20029;-77
2022/06/15 10:50:51;;;;;;;3.42;1.75;;;;;;;21.93;54.57;102058.75;5012831;28;20768;-80
2022/06/15 10:53:51;;;;;;;2.00;1.45;;;;;;;22.03;53.36;102061.63;4999931;28;20041;-81
2022/06/15 11:02:38;;;;;;;2.25;1.52;;;;;;;22.16;54.19;102058.88;5028625;28;20029;-79
2022/06/15 11:05:11;;;;;;;1.40;1.23;;;;;;;22.02;54.97;102062.59;5000168;28;20109;-78
2022/06/15 11:07:46;;;;;;;2.95;1.48;;;;;;;21.92;54.58;102062.44;5013729;28;20612;-78
2022/06/15 11:10:26;;;;;;;1.73;1.40;;;;;;;21.74;55.30;102065.53;5014640;28;20079;-80
2022/06/15 11:12:55;;;;;;;2.90;1.38;;;;;;;21.42;55.40;102071.44;5011461;28;20044;-79
2022/06/15 11:18:38;;;;;;;2.83;1.65;;;;;;;20.94;54.26;102055.97;5017914;28;20211;-79
2022/06/15 11:21:14;;;;;;;1.47;1.30;;;;;;;20.83;55.80;102064.78;4997020;28;20484;-79
2022/06/15 11:23:49;;;;;;;1.55;1.45;;;;;;;20.80;55.97;102059.63;5014448;28;20851;-79
2022/06/15 11:29:48;;;;;;;2.55;1.77;;;;;;;20.88;57.01;102063.50;5028516;28;20610;-79
2022/06/15 11:32:44;;;;;;;2.35;1.83;;;;;;;20.60;57.67;102062.72;5014272;28;20033;-80
2022/06/15 11:35:12;;;;;;;2.45;1.40;;;;;;;20.33;58.71;102063.63;5026391;28;20041;-79
2022/06/15 11:37:44;;;;;;;3.15;1.90;;;;;;;20.19;59.13;102056.53;4996160;28;20041;-79
2022/06/15 11:40:22;;;;;;;3.45;1.75;;;;;;;20.10;59.56;102059.81;5016698;28;20392;-79
2022/06/15 11:42:51;;;;;;;2.25;1.77;;;;;;;20.12;59.69;102054.34;5011643;28;20884;-78
2022/06/15 11:45:20;;;;;;;3.25;1.65;;;;;;;20.25;59.69;102059.78;5027636;28;20033;-81
2022/06/15 11:48:16;;;;;;;3.35;1.80;;;;;;;20.38;59.27;102057.97;4997991;28;20033;-79
2022/06/15 11:50:51;;;;;;;4.13;2.20;;;;;;;20.41;58.13;102063.13;5012020;28;20099;-79
2022/06/15 11:53:38;;;;;;;1.77;1.67;;;;;;;20.43;57.04;102063.03;5016827;28;20068;-79